sensor_id;sensor_type;location;lat;lon;timestamp;P1;durP1;ratioP1;P2;durP2;ratioP2
18568;SDS011;14780;48.316;-1.050;2023-03-13T00:02:17;7.80;;;4.40;;
18568;SDS011;14780;48.316;-1.050;2023-03-13T00:05:01;7.55;;;4.20;;
18568;SDS011;14780;48.316;-1.050;2023-03-13T00:07:46;8.82;;;3.80;;
18568;SDS011;14780;48.316;-1.050;2023-03-13T00:10:30;7.38;;;3.65;;
18568;SDS011;14780;48.316;-1.050;2023-03-13T00:13:15;7.43;;;3.80;;
18568;SDS011;14780;48.316;-1.050;2023-03-13T00:16:01;7.20;;;3.65;;
18568;SDS011;14780;48.316;-1.050;2023-03-13T00:18:48;7.03;;;3.47;;
18568;SDS011;14780;48.316;-1.050;2023-03-13T00:21:34;6.07;;;3.38;;
18568;SDS011;14780;48.316;-1.050;2023-03-13T00:24:23;8.50;;;3.58;;
18568;SDS011;14780;48.316;-1.050;2023-03-13T00:27:08;8.10;;;3.97;;
18568;SDS011;14780;48.316;-1.050;2023-03-13T00:29:53;8.10;;;3.53;;
18568;SDS011;14780;48.316;-1.050;2023-03-13T00:32:41;7.78;;;3.80;;
18568;SDS011;14780;48.316;-1.050;2023-03-13T00:35:28;8.05;;;3.55;;
18568;SDS011;14780;48.316;-1.050;2023-03-13T00:38:13;6.40;;;3.47;;
18568;SDS011;14780;48.316;-1.050;2023-03-13T00:41:01;9.15;;;3.60;;
18568;SDS011;14780;48.316;-1.050;2023-03-13T00:43:51;7.90;;;3.60;;
18568;SDS011;14780;48.316;-1.050;2023-03-13T00:46:37;7.05;;;3.28;;
18568;SDS011;14780;48.316;-1.050;2023-03-13T00:49:22;7.55;;;3.55;;
18568;SDS011;14780;48.316;-1.050;2023-03-13T00:52:07;5.28;;;3.28;;
18568;SDS011;14780;48.316;-1.050;2023-03-13T00:54:52;5.22;;;3.35;;
18568;SDS011;14780;48.316;-1.050;2023-03-13T00:57:36;6.90;;;3.20;;
18568;SDS011;14780;48.316;-1.050;2023-03-13T01:00:21;6.15;;;3.05;;
18568;SDS011;14780;48.316;-1.050;2023-03-13T01:03:06;6.50;;;2.80;;
18568;SDS011;14780;48.316;-1.050;2023-03-13T01:05:58;5.55;;;3.10;;
18568;SDS011;14780;48.316;-1.050;2023-03-13T01:08:45;4.10;;;2.50;;
18568;SDS011;14780;48.316;-1.050;2023-03-13T01:11:31;5.47;;;2.95;;
18568;SDS011;14780;48.316;-1.050;2023-03-13T01:14:19;4.95;;;3.10;;
18568;SDS011;14780;48.316;-1.050;2023-03-13T01:17:04;5.97;;;2.80;;
18568;SDS011;14780;48.316;-1.050;2023-03-13T01:19:48;5.72;;;2.80;;
18568;SDS011;14780;48.316;-1.050;2023-03-13T01:22:33;4.97;;;2.58;;
18568;SDS011;14780;48.316;-1.050;2023-03-13T01:25:18;6.97;;;3.08;;
18568;SDS011;14780;48.316;-1.050;2023-03-13T01:28:03;5.75;;;2.75;;
18568;SDS011;14780;48.316;-1.050;2023-03-13T01:30:48;5.93;;;2.60;;
18568;SDS011;14780;48.316;-1.050;2023-03-13T01:33:32;7.38;;;2.80;;
18568;SDS011;14780;48.316;-1.050;2023-03-13T01:36:17;5.05;;;2.67;;
18568;SDS011;14780;48.316;-1.050;2023-03-13T01:39:02;6.15;;;3.25;;
18568;SDS011;14780;48.316;-1.050;2023-03-13T01:41:47;5.22;;;2.63;;
18568;SDS011;14780;48.316;-1.050;2023-03-13T01:44:52;5.10;;;2.55;;
18568;SDS011;14780;48.316;-1.050;2023-03-13T01:47:38;4.63;;;2.65;;
18568;SDS011;14780;48.316;-1.050;2023-03-13T01:50:23;4.90;;;2.60;;
18568;SDS011;14780;48.316;-1.050;2023-03-13T01:53:07;4.72;;;2.88;;
18568;SDS011;14780;48.316;-1.050;2023-03-13T01:55:53;5.70;;;2.70;;
18568;SDS011;14780;48.316;-1.050;2023-03-13T01:58:40;7.53;;;2.90;;
18568;SDS011;14780;48.316;-1.050;2023-03-13T02:01:25;6.10;;;2.78;;
18568;SDS011;14780;48.316;-1.050;2023-03-13T02:04:11;4.18;;;2.50;;
18568;SDS011;14780;48.316;-1.050;2023-03-13T02:06:59;6.25;;;2.90;;
18568;SDS011;14780;48.316;-1.050;2023-03-13T02:09:49;5.20;;;2.78;;
18568;SDS011;14780;48.316;-1.050;2023-03-13T02:12:38;5.88;;;2.90;;
18568;SDS011;14780;48.316;-1.050;2023-03-13T02:15:24;4.82;;;2.58;;
18568;SDS011;14780;48.316;-1.050;2023-03-13T02:18:10;4.95;;;2.70;;
18568;SDS011;14780;48.316;-1.050;2023-03-13T02:20:58;5.30;;;2.45;;
18568;SDS011;14780;48.316;-1.050;2023-03-13T02:27:16;5.45;;;2.67;;
18568;SDS011;14780;48.316;-1.050;2023-03-13T02:30:00;4.88;;;2.72;;
18568;SDS011;14780;48.316;-1.050;2023-03-13T02:32:47;3.30;;;2.40;;
18568;SDS011;14780;48.316;-1.050;2023-03-13T02:35:32;3.72;;;2.45;;
18568;SDS011;14780;48.316;-1.050;2023-03-13T02:38:20;3.47;;;2.17;;
18568;SDS011;14780;48.316;-1.050;2023-03-13T02:41:09;4.60;;;2.38;;
18568;SDS011;14780;48.316;-1.050;2023-03-13T02:43:56;4.90;;;2.70;;
18568;SDS011;14780;48.316;-1.050;2023-03-13T02:46:45;5.25;;;2.42;;
18568;SDS011;14780;48.316;-1.050;2023-03-13T02:49:35;5.85;;;2.33;;
18568;SDS011;14780;48.316;-1.050;2023-03-13T02:52:22;3.90;;;2.30;;
18568;SDS011;14780;48.316;-1.050;2023-03-13T02:55:26;4.78;;;2.67;;
18568;SDS011;14780;48.316;-1.050;2023-03-13T02:58:38;5.25;;;2.50;;
18568;SDS011;14780;48.316;-1.050;2023-03-13T03:01:24;6.72;;;2.40;;
18568;SDS011;14780;48.316;-1.050;2023-03-13T03:04:09;4.63;;;2.42;;
18568;SDS011;14780;48.316;-1.050;2023-03-13T03:06:53;5.45;;;2.60;;
18568;SDS011;14780;48.316;-1.050;2023-03-13T03:09:38;4.07;;;2.30;;
18568;SDS011;14780;48.316;-1.050;2023-03-13T03:12:23;6.15;;;2.38;;
18568;SDS011;14780;48.316;-1.050;2023-03-13T03:15:07;4.20;;;2.38;;
18568;SDS011;14780;48.316;-1.050;2023-03-13T03:17:53;3.45;;;2.08;;
18568;SDS011;14780;48.316;-1.050;2023-03-13T03:20:37;4.28;;;2.50;;
18568;SDS011;14780;48.316;-1.050;2023-03-13T03:23:22;5.28;;;2.45;;
18568;SDS011;14780;48.316;-1.050;2023-03-13T03:26:07;5.20;;;2.58;;
18568;SDS011;14780;48.316;-1.050;2023-03-13T03:28:52;5.65;;;2.50;;
18568;SDS011;14780;48.316;-1.050;2023-03-13T03:31:37;4.70;;;2.78;;
18568;SDS011;14780;48.316;-1.050;2023-03-13T03:34:22;3.20;;;2.30;;
18568;SDS011;14780;48.316;-1.050;2023-03-13T03:37:07;4.55;;;2.35;;
18568;SDS011;14780;48.316;-1.050;2023-03-13T03:39:52;4.53;;;2.60;;
18568;SDS011;14780;48.316;-1.050;2023-03-13T03:42:37;3.65;;;2.10;;
18568;SDS011;14780;48.316;-1.050;2023-03-13T03:45:22;5.53;;;2.42;;
18568;SDS011;14780;48.316;-1.050;2023-03-13T03:48:06;5.15;;;2.42;;
18568;SDS011;14780;48.316;-1.050;2023-03-13T03:50:51;4.90;;;2.30;;
18568;SDS011;14780;48.316;-1.050;2023-03-13T03:53:36;4.45;;;2.55;;
18568;SDS011;14780;48.316;-1.050;2023-03-13T03:56:20;3.42;;;2.10;;
18568;SDS011;14780;48.316;-1.050;2023-03-13T03:59:05;3.58;;;2.00;;
18568;SDS011;14780;48.316;-1.050;2023-03-13T04:01:50;4.10;;;2.40;;
18568;SDS011;14780;48.316;-1.050;2023-03-13T04:04:35;4.72;;;2.33;;
18568;SDS011;14780;48.316;-1.050;2023-03-13T04:07:20;3.22;;;2.10;;
18568;SDS011;14780;48.316;-1.050;2023-03-13T04:10:05;3.75;;;2.10;;
18568;SDS011;14780;48.316;-1.050;2023-03-13T04:12:50;3.33;;;2.30;;
18568;SDS011;14780;48.316;-1.050;2023-03-13T04:15:36;3.47;;;2.08;;
18568;SDS011;14780;48.316;-1.050;2023-03-13T04:18:23;4.72;;;2.35;;
18568;SDS011;14780;48.316;-1.050;2023-03-13T04:21:07;5.20;;;2.17;;
18568;SDS011;14780;48.316;-1.050;2023-03-13T04:23:52;4.32;;;2.30;;
18568;SDS011;14780;48.316;-1.050;2023-03-13T04:26:36;3.53;;;1.88;;
18568;SDS011;14780;48.316;-1.050;2023-03-13T04:29:21;3.83;;;2.30;;
18568;SDS011;14780;48.316;-1.050;2023-03-13T04:32:06;3.17;;;1.98;;
18568;SDS011;14780;48.316;-1.050;2023-03-13T04:34:51;4.32;;;2.60;;
18568;SDS011;14780;48.316;-1.050;2023-03-13T04:37:36;3.35;;;2.20;;
18568;SDS011;14780;48.316;-1.050;2023-03-13T04:40:20;2.83;;;2.10;;
18568;SDS011;14780;48.316;-1.050;2023-03-13T04:43:05;3.95;;;1.92;;
18568;SDS011;14780;48.316;-1.050;2023-03-13T04:45:52;3.00;;;2.00;;
18568;SDS011;14780;48.316;-1.050;2023-03-13T04:48:37;3.55;;;2.10;;
18568;SDS011;14780;48.316;-1.050;2023-03-13T04:51:22;3.42;;;2.10;;
18568;SDS011;14780;48.316;-1.050;2023-03-13T04:54:08;2.80;;;2.10;;
18568;SDS011;14780;48.316;-1.050;2023-03-13T04:56:53;4.22;;;2.17;;
18568;SDS011;14780;48.316;-1.050;2023-03-13T04:59:38;3.60;;;2.08;;
18568;SDS011;14780;48.316;-1.050;2023-03-13T05:02:22;4.18;;;1.83;;
18568;SDS011;14780;48.316;-1.050;2023-03-13T05:05:07;2.95;;;2.05;;
18568;SDS011;14780;48.316;-1.050;2023-03-13T05:07:51;3.90;;;2.20;;
18568;SDS011;14780;48.316;-1.050;2023-03-13T05:10:36;2.55;;;2.10;;
18568;SDS011;14780;48.316;-1.050;2023-03-13T05:13:20;3.08;;;1.80;;
18568;SDS011;14780;48.316;-1.050;2023-03-13T05:16:06;1.90;;;1.60;;
18568;SDS011;14780;48.316;-1.050;2023-03-13T05:18:51;4.05;;;2.05;;
18568;SDS011;14780;48.316;-1.050;2023-03-13T05:21:35;2.50;;;1.70;;
18568;SDS011;14780;48.316;-1.050;2023-03-13T05:24:20;3.53;;;2.17;;
18568;SDS011;14780;48.316;-1.050;2023-03-13T05:27:05;2.75;;;2.00;;
18568;SDS011;14780;48.316;-1.050;2023-03-13T05:29:50;3.33;;;1.95;;
18568;SDS011;14780;48.316;-1.050;2023-03-13T05:32:34;3.08;;;2.00;;
18568;SDS011;14780;48.316;-1.050;2023-03-13T05:35:19;3.40;;;1.92;;
18568;SDS011;14780;48.316;-1.050;2023-03-13T05:38:04;2.78;;;1.80;;
18568;SDS011;14780;48.316;-1.050;2023-03-13T05:40:48;1.73;;;1.52;;
18568;SDS011;14780;48.316;-1.050;2023-03-13T05:43:33;1.83;;;1.48;;
18568;SDS011;14780;48.316;-1.050;2023-03-13T05:46:18;1.85;;;1.63;;
18568;SDS011;14780;48.316;-1.050;2023-03-13T05:49:03;3.20;;;1.80;;
18568;SDS011;14780;48.316;-1.050;2023-03-13T05:51:48;2.92;;;1.80;;
18568;SDS011;14780;48.316;-1.050;2023-03-13T05:54:33;2.70;;;1.83;;
18568;SDS011;14780;48.316;-1.050;2023-03-13T05:57:17;1.88;;;1.55;;
18568;SDS011;14780;48.316;-1.050;2023-03-13T06:00:02;2.90;;;2.13;;
18568;SDS011;14780;48.316;-1.050;2023-03-13T06:02:47;3.30;;;1.98;;
18568;SDS011;14780;48.316;-1.050;2023-03-13T06:05:32;2.17;;;1.63;;
18568;SDS011;14780;48.316;-1.050;2023-03-13T06:08:16;2.83;;;1.60;;
18568;SDS011;14780;48.316;-1.050;2023-03-13T06:11:01;1.92;;;1.42;;
18568;SDS011;14780;48.316;-1.050;2023-03-13T06:13:46;3.10;;;1.80;;
18568;SDS011;14780;48.316;-1.050;2023-03-13T06:16:31;3.90;;;1.77;;
18568;SDS011;14780;48.316;-1.050;2023-03-13T06:19:16;1.88;;;1.60;;
18568;SDS011;14780;48.316;-1.050;2023-03-13T06:22:00;2.95;;;1.70;;
18568;SDS011;14780;48.316;-1.050;2023-03-13T06:24:45;5.50;;;2.03;;
18568;SDS011;14780;48.316;-1.050;2023-03-13T06:27:32;4.35;;;2.13;;
18568;SDS011;14780;48.316;-1.050;2023-03-13T06:30:16;3.63;;;1.90;;
18568;SDS011;14780;48.316;-1.050;2023-03-13T06:33:01;3.65;;;1.95;;
18568;SDS011;14780;48.316;-1.050;2023-03-13T06:35:46;5.40;;;2.00;;
18568;SDS011;14780;48.316;-1.050;2023-03-13T06:38:30;5.15;;;1.63;;
18568;SDS011;14780;48.316;-1.050;2023-03-13T06:41:16;4.75;;;2.58;;
18568;SDS011;14780;48.316;-1.050;2023-03-13T06:44:00;3.03;;;1.77;;
18568;SDS011;14780;48.316;-1.050;2023-03-13T06:46:46;3.53;;;1.88;;
18568;SDS011;14780;48.316;-1.050;2023-03-13T06:49:30;6.95;;;1.90;;
18568;SDS011;14780;48.316;-1.050;2023-03-13T06:52:15;4.45;;;2.08;;
18568;SDS011;14780;48.316;-1.050;2023-03-13T06:55:00;6.38;;;2.13;;
18568;SDS011;14780;48.316;-1.050;2023-03-13T06:57:50;3.25;;;2.00;;
18568;SDS011;14780;48.316;-1.050;2023-03-13T07:00:35;5.38;;;1.80;;
18568;SDS011;14780;48.316;-1.050;2023-03-13T07:03:22;3.95;;;1.92;;
18568;SDS011;14780;48.316;-1.050;2023-03-13T07:06:08;4.40;;;2.20;;
18568;SDS011;14780;48.316;-1.050;2023-03-13T07:08:54;7.38;;;2.45;;
18568;SDS011;14780;48.316;-1.050;2023-03-13T07:11:39;3.63;;;2.03;;
18568;SDS011;14780;48.316;-1.050;2023-03-13T07:14:23;4.15;;;1.80;;
18568;SDS011;14780;48.316;-1.050;2023-03-13T07:17:08;6.50;;;2.60;;
18568;SDS011;14780;48.316;-1.050;2023-03-13T07:19:52;9.65;;;2.58;;
18568;SDS011;14780;48.316;-1.050;2023-03-13T07:22:37;5.97;;;2.42;;
18568;SDS011;14780;48.316;-1.050;2023-03-13T07:25:22;5.72;;;2.15;;
18568;SDS011;14780;48.316;-1.050;2023-03-13T07:28:06;9.88;;;2.90;;
18568;SDS011;14780;48.316;-1.050;2023-03-13T07:30:51;4.70;;;2.20;;
18568;SDS011;14780;48.316;-1.050;2023-03-13T07:33:36;7.63;;;2.35;;
18568;SDS011;14780;48.316;-1.050;2023-03-13T07:36:21;5.30;;;2.22;;
18568;SDS011;14780;48.316;-1.050;2023-03-13T07:39:06;4.72;;;2.20;;
18568;SDS011;14780;48.316;-1.050;2023-03-13T07:41:51;4.93;;;2.50;;
18568;SDS011;14780;48.316;-1.050;2023-03-13T07:44:36;5.60;;;2.42;;
18568;SDS011;14780;48.316;-1.050;2023-03-13T07:47:21;4.72;;;2.50;;
18568;SDS011;14780;48.316;-1.050;2023-03-13T07:50:05;4.47;;;2.42;;
18568;SDS011;14780;48.316;-1.050;2023-03-13T07:52:52;8.88;;;2.88;;
18568;SDS011;14780;48.316;-1.050;2023-03-13T07:55:36;4.35;;;2.38;;
18568;SDS011;14780;48.316;-1.050;2023-03-13T07:58:21;6.63;;;3.13;;
18568;SDS011;14780;48.316;-1.050;2023-03-13T08:01:07;6.03;;;2.50;;
18568;SDS011;14780;48.316;-1.050;2023-03-13T08:03:53;5.43;;;2.65;;
18568;SDS011;14780;48.316;-1.050;2023-03-13T08:06:38;4.28;;;2.13;;
18568;SDS011;14780;48.316;-1.050;2023-03-13T08:09:24;3.60;;;2.03;;
18568;SDS011;14780;48.316;-1.050;2023-03-13T08:12:09;5.43;;;2.80;;
18568;SDS011;14780;48.316;-1.050;2023-03-13T08:14:54;6.70;;;2.60;;
18568;SDS011;14780;48.316;-1.050;2023-03-13T08:17:39;5.47;;;2.67;;
18568;SDS011;14780;48.316;-1.050;2023-03-13T08:20:23;6.60;;;2.60;;
18568;SDS011;14780;48.316;-1.050;2023-03-13T08:23:08;5.85;;;2.35;;
18568;SDS011;14780;48.316;-1.050;2023-03-13T08:25:52;6.63;;;2.65;;
18568;SDS011;14780;48.316;-1.050;2023-03-13T08:28:37;5.65;;;2.67;;
18568;SDS011;14780;48.316;-1.050;2023-03-13T08:31:24;4.82;;;2.60;;
18568;SDS011;14780;48.316;-1.050;2023-03-13T08:34:12;5.22;;;2.60;;
18568;SDS011;14780;48.316;-1.050;2023-03-13T08:36:57;4.93;;;2.30;;
18568;SDS011;14780;48.316;-1.050;2023-03-13T08:39:42;4.28;;;2.40;;
18568;SDS011;14780;48.316;-1.050;2023-03-13T08:42:28;6.70;;;2.75;;
18568;SDS011;14780;48.316;-1.050;2023-03-13T08:45:12;6.68;;;2.60;;
18568;SDS011;14780;48.316;-1.050;2023-03-13T08:47:57;6.35;;;2.63;;
18568;SDS011;14780;48.316;-1.050;2023-03-13T08:50:42;5.30;;;2.70;;
18568;SDS011;14780;48.316;-1.050;2023-03-13T08:53:27;5.28;;;2.65;;
18568;SDS011;14780;48.316;-1.050;2023-03-13T08:56:14;5.22;;;2.60;;
18568;SDS011;14780;48.316;-1.050;2023-03-13T08:59:01;4.63;;;2.45;;
18568;SDS011;14780;48.316;-1.050;2023-03-13T09:01:47;5.45;;;2.78;;
18568;SDS011;14780;48.316;-1.050;2023-03-13T09:04:32;4.65;;;2.45;;
18568;SDS011;14780;48.316;-1.050;2023-03-13T09:07:16;6.07;;;2.60;;
18568;SDS011;14780;48.316;-1.050;2023-03-13T09:10:01;5.55;;;2.65;;
18568;SDS011;14780;48.316;-1.050;2023-03-13T09:12:46;5.50;;;2.80;;
18568;SDS011;14780;48.316;-1.050;2023-03-13T09:15:31;7.47;;;2.72;;
18568;SDS011;14780;48.316;-1.050;2023-03-13T09:18:15;7.93;;;3.00;;
18568;SDS011;14780;48.316;-1.050;2023-03-13T09:21:00;5.85;;;2.67;;
18568;SDS011;14780;48.316;-1.050;2023-03-13T09:23:46;6.15;;;2.80;;
18568;SDS011;14780;48.316;-1.050;2023-03-13T09:26:31;4.85;;;2.65;;
18568;SDS011;14780;48.316;-1.050;2023-03-13T09:29:16;6.13;;;2.90;;
18568;SDS011;14780;48.316;-1.050;2023-03-13T09:32:01;6.03;;;2.28;;
18568;SDS011;14780;48.316;-1.050;2023-03-13T09:34:46;7.20;;;2.88;;
18568;SDS011;14780;48.316;-1.050;2023-03-13T09:37:31;7.18;;;3.10;;
18568;SDS011;14780;48.316;-1.050;2023-03-13T09:40:16;9.68;;;3.05;;
18568;SDS011;14780;48.316;-1.050;2023-03-13T09:43:03;6.13;;;3.00;;
18568;SDS011;14780;48.316;-1.050;2023-03-13T09:46:02;6.00;;;2.85;;
18568;SDS011;14780;48.316;-1.050;2023-03-13T09:48:55;5.55;;;2.72;;
18568;SDS011;14780;48.316;-1.050;2023-03-13T09:51:44;7.03;;;2.85;;
18568;SDS011;14780;48.316;-1.050;2023-03-13T09:54:35;7.65;;;3.20;;
18568;SDS011;14780;48.316;-1.050;2023-03-13T09:57:32;5.82;;;3.15;;
18568;SDS011;14780;48.316;-1.050;2023-03-13T10:03:39;6.30;;;2.90;;
18568;SDS011;14780;48.316;-1.050;2023-03-13T10:06:32;5.57;;;3.00;;
18568;SDS011;14780;48.316;-1.050;2023-03-13T10:09:25;5.68;;;2.75;;
18568;SDS011;14780;48.316;-1.050;2023-03-13T10:12:21;5.18;;;2.55;;
18568;SDS011;14780;48.316;-1.050;2023-03-13T10:18:19;7.45;;;2.92;;
18568;SDS011;14780;48.316;-1.050;2023-03-13T10:21:25;7.03;;;2.80;;
18568;SDS011;14780;48.316;-1.050;2023-03-13T10:27:27;7.32;;;3.03;;
18568;SDS011;14780;48.316;-1.050;2023-03-13T10:30:34;7.05;;;2.95;;
18568;SDS011;14780;48.316;-1.050;2023-03-13T10:33:23;7.43;;;2.97;;
18568;SDS011;14780;48.316;-1.050;2023-03-13T10:36:10;6.88;;;2.97;;
18568;SDS011;14780;48.316;-1.050;2023-03-13T10:38:56;7.07;;;3.00;;
18568;SDS011;14780;48.316;-1.050;2023-03-13T10:41:41;7.38;;;3.33;;
18568;SDS011;14780;48.316;-1.050;2023-03-13T10:44:29;7.85;;;3.45;;
18568;SDS011;14780;48.316;-1.050;2023-03-13T10:47:16;6.90;;;3.17;;
18568;SDS011;14780;48.316;-1.050;2023-03-13T10:50:02;8.68;;;3.22;;
18568;SDS011;14780;48.316;-1.050;2023-03-13T10:52:48;6.20;;;3.10;;
18568;SDS011;14780;48.316;-1.050;2023-03-13T10:55:33;7.03;;;3.03;;
18568;SDS011;14780;48.316;-1.050;2023-03-13T11:01:20;6.10;;;3.22;;
18568;SDS011;14780;48.316;-1.050;2023-03-13T11:07:20;6.45;;;3.20;;
18568;SDS011;14780;48.316;-1.050;2023-03-13T11:13:05;8.10;;;3.13;;
18568;SDS011;14780;48.316;-1.050;2023-03-13T11:19:17;8.82;;;3.03;;
18568;SDS011;14780;48.316;-1.050;2023-03-13T11:25:08;7.78;;;3.05;;
18568;SDS011;14780;48.316;-1.050;2023-03-13T11:31:22;7.88;;;3.40;;
18568;SDS011;14780;48.316;-1.050;2023-03-13T11:34:21;7.13;;;3.50;;
18568;SDS011;14780;48.316;-1.050;2023-03-13T11:37:14;7.50;;;3.15;;
18568;SDS011;14780;48.316;-1.050;2023-03-13T11:46:21;7.88;;;3.50;;
18568;SDS011;14780;48.316;-1.050;2023-03-13T11:52:34;5.95;;;3.10;;
18568;SDS011;14780;48.316;-1.050;2023-03-13T11:58:14;7.10;;;3.40;;
18568;SDS011;14780;48.316;-1.050;2023-03-13T12:01:29;7.90;;;3.35;;
18568;SDS011;14780;48.316;-1.050;2023-03-13T12:04:33;7.40;;;3.40;;
18568;SDS011;14780;48.316;-1.050;2023-03-13T12:10:36;7.40;;;3.38;;
18568;SDS011;14780;48.316;-1.050;2023-03-13T12:13:39;8.50;;;3.05;;
18568;SDS011;14780;48.316;-1.050;2023-03-13T12:19:37;6.15;;;3.00;;
18568;SDS011;14780;48.316;-1.050;2023-03-13T12:28:32;5.20;;;3.03;;
18568;SDS011;14780;48.316;-1.050;2023-03-13T12:31:39;6.68;;;2.85;;
18568;SDS011;14780;48.316;-1.050;2023-03-13T12:40:37;6.45;;;2.85;;
18568;SDS011;14780;48.316;-1.050;2023-03-13T12:43:43;10.48;;;3.63;;
18568;SDS011;14780;48.316;-1.050;2023-03-13T12:46:35;6.82;;;3.17;;
18568;SDS011;14780;48.316;-1.050;2023-03-13T12:49:37;10.05;;;3.33;;
18568;SDS011;14780;48.316;-1.050;2023-03-13T12:52:53;7.18;;;3.53;;
18568;SDS011;14780;48.316;-1.050;2023-03-13T12:59:18;8.48;;;3.25;;
18568;SDS011;14780;48.316;-1.050;2023-03-13T13:02:19;10.32;;;3.30;;
18568;SDS011;14780;48.316;-1.050;2023-03-13T13:05:19;8.48;;;3.17;;
18568;SDS011;14780;48.316;-1.050;2023-03-13T13:08:20;6.00;;;3.08;;
18568;SDS011;14780;48.316;-1.050;2023-03-13T13:14:52;7.53;;;3.45;;
18568;SDS011;14780;48.316;-1.050;2023-03-13T13:31:57;6.35;;;2.65;;
18568;SDS011;14780;48.316;-1.050;2023-03-13T13:34:54;7.97;;;2.88;;
18568;SDS011;14780;48.316;-1.050;2023-03-13T13:37:45;7.82;;;3.40;;
18568;SDS011;14780;48.316;-1.050;2023-03-13T13:40:30;7.57;;;2.90;;
18568;SDS011;14780;48.316;-1.050;2023-03-13T13:43:20;9.80;;;2.78;;
18568;SDS011;14780;48.316;-1.050;2023-03-13T13:49:17;6.55;;;3.08;;
18568;SDS011;14780;48.316;-1.050;2023-03-13T13:55:29;8.02;;;3.47;;
18568;SDS011;14780;48.316;-1.050;2023-03-13T13:58:18;6.78;;;2.85;;
18568;SDS011;14780;48.316;-1.050;2023-03-13T14:01:13;7.40;;;2.97;;
18568;SDS011;14780;48.316;-1.050;2023-03-13T14:07:29;8.25;;;3.65;;
18568;SDS011;14780;48.316;-1.050;2023-03-13T14:10:37;7.82;;;3.28;;
18568;SDS011;14780;48.316;-1.050;2023-03-13T14:13:24;8.05;;;2.92;;
18568;SDS011;14780;48.316;-1.050;2023-03-13T14:16:23;7.85;;;2.88;;
18568;SDS011;14780;48.316;-1.050;2023-03-13T14:19:26;6.63;;;3.00;;
18568;SDS011;14780;48.316;-1.050;2023-03-13T14:22:13;7.75;;;3.40;;
18568;SDS011;14780;48.316;-1.050;2023-03-13T14:24:58;7.28;;;3.00;;
18568;SDS011;14780;48.316;-1.050;2023-03-13T14:27:43;7.55;;;3.40;;
18568;SDS011;14780;48.316;-1.050;2023-03-13T14:30:30;7.70;;;3.33;;
18568;SDS011;14780;48.316;-1.050;2023-03-13T14:33:14;6.57;;;3.03;;
18568;SDS011;14780;48.316;-1.050;2023-03-13T14:36:00;7.10;;;3.08;;
18568;SDS011;14780;48.316;-1.050;2023-03-13T14:38:57;5.68;;;2.63;;
18568;SDS011;14780;48.316;-1.050;2023-03-13T14:41:43;6.63;;;2.88;;
18568;SDS011;14780;48.316;-1.050;2023-03-13T14:44:31;5.93;;;2.80;;
18568;SDS011;14780;48.316;-1.050;2023-03-13T14:50:10;6.53;;;2.83;;
18568;SDS011;14780;48.316;-1.050;2023-03-13T14:52:59;7.40;;;3.38;;
18568;SDS011;14780;48.316;-1.050;2023-03-13T14:56:09;5.15;;;2.58;;
18568;SDS011;14780;48.316;-1.050;2023-03-13T14:59:05;6.07;;;2.45;;
18568;SDS011;14780;48.316;-1.050;2023-03-13T15:04:57;8.73;;;3.17;;
18568;SDS011;14780;48.316;-1.050;2023-03-13T15:07:53;7.07;;;2.97;;
18568;SDS011;14780;48.316;-1.050;2023-03-13T15:10:38;7.07;;;3.20;;
18568;SDS011;14780;48.316;-1.050;2023-03-13T15:16:19;8.07;;;3.35;;
18568;SDS011;14780;48.316;-1.050;2023-03-13T15:19:05;9.07;;;3.20;;
18568;SDS011;14780;48.316;-1.050;2023-03-13T15:21:51;6.75;;;3.00;;
18568;SDS011;14780;48.316;-1.050;2023-03-13T15:24:36;5.78;;;2.70;;
18568;SDS011;14780;48.316;-1.050;2023-03-13T15:27:22;6.82;;;2.70;;
18568;SDS011;14780;48.316;-1.050;2023-03-13T15:30:09;8.40;;;3.17;;
18568;SDS011;14780;48.316;-1.050;2023-03-13T15:32:59;5.65;;;2.58;;
18568;SDS011;14780;48.316;-1.050;2023-03-13T15:35:44;8.90;;;3.45;;
18568;SDS011;14780;48.316;-1.050;2023-03-13T15:38:30;8.90;;;3.10;;
18568;SDS011;14780;48.316;-1.050;2023-03-13T15:41:14;7.53;;;3.20;;
18568;SDS011;14780;48.316;-1.050;2023-03-13T15:44:00;9.57;;;3.10;;
18568;SDS011;14780;48.316;-1.050;2023-03-13T15:46:44;6.60;;;2.85;;
18568;SDS011;14780;48.316;-1.050;2023-03-13T15:49:30;6.85;;;3.10;;
18568;SDS011;14780;48.316;-1.050;2023-03-13T15:52:19;6.88;;;2.90;;
18568;SDS011;14780;48.316;-1.050;2023-03-13T15:55:05;6.95;;;3.30;;
18568;SDS011;14780;48.316;-1.050;2023-03-13T15:57:50;7.53;;;3.03;;
18568;SDS011;14780;48.316;-1.050;2023-03-13T16:00:35;6.75;;;2.92;;
18568;SDS011;14780;48.316;-1.050;2023-03-13T16:03:23;6.50;;;3.08;;
18568;SDS011;14780;48.316;-1.050;2023-03-13T16:06:12;8.50;;;3.50;;
18568;SDS011;14780;48.316;-1.050;2023-03-13T16:09:13;9.57;;;3.53;;
18568;SDS011;14780;48.316;-1.050;2023-03-13T16:12:00;8.32;;;3.30;;
18568;SDS011;14780;48.316;-1.050;2023-03-13T16:14:44;7.70;;;3.13;;
18568;SDS011;14780;48.316;-1.050;2023-03-13T16:17:29;8.15;;;3.00;;
18568;SDS011;14780;48.316;-1.050;2023-03-13T16:20:19;8.10;;;3.08;;
18568;SDS011;14780;48.316;-1.050;2023-03-13T16:23:05;7.40;;;2.90;;
18568;SDS011;14780;48.316;-1.050;2023-03-13T16:25:49;7.35;;;3.15;;
18568;SDS011;14780;48.316;-1.050;2023-03-13T16:28:34;8.30;;;2.92;;
18568;SDS011;14780;48.316;-1.050;2023-03-13T16:31:20;7.70;;;3.50;;
18568;SDS011;14780;48.316;-1.050;2023-03-13T16:34:14;6.97;;;3.33;;
18568;SDS011;14780;48.316;-1.050;2023-03-13T16:36:59;9.88;;;3.70;;
18568;SDS011;14780;48.316;-1.050;2023-03-13T16:39:44;6.15;;;3.17;;
18568;SDS011;14780;48.316;-1.050;2023-03-13T16:42:29;7.93;;;2.90;;
18568;SDS011;14780;48.316;-1.050;2023-03-13T16:45:14;7.22;;;3.33;;
18568;SDS011;14780;48.316;-1.050;2023-03-13T16:47:59;9.05;;;3.70;;
18568;SDS011;14780;48.316;-1.050;2023-03-13T16:50:44;7.68;;;3.60;;
18568;SDS011;14780;48.316;-1.050;2023-03-13T16:53:29;7.57;;;3.35;;
18568;SDS011;14780;48.316;-1.050;2023-03-13T16:56:30;6.75;;;3.03;;
18568;SDS011;14780;48.316;-1.050;2023-03-13T16:59:17;7.80;;;3.10;;
18568;SDS011;14780;48.316;-1.050;2023-03-13T17:02:02;7.45;;;3.53;;
18568;SDS011;14780;48.316;-1.050;2023-03-13T17:04:47;7.30;;;3.30;;
18568;SDS011;14780;48.316;-1.050;2023-03-13T17:07:32;11.77;;;3.70;;
18568;SDS011;14780;48.316;-1.050;2023-03-13T17:10:18;6.60;;;3.40;;
18568;SDS011;14780;48.316;-1.050;2023-03-13T17:13:07;7.45;;;3.63;;
18568;SDS011;14780;48.316;-1.050;2023-03-13T17:15:52;9.27;;;3.63;;
18568;SDS011;14780;48.316;-1.050;2023-03-13T17:18:37;6.15;;;3.13;;
18568;SDS011;14780;48.316;-1.050;2023-03-13T17:21:23;6.57;;;3.22;;
18568;SDS011;14780;48.316;-1.050;2023-03-13T17:24:09;7.30;;;3.40;;
18568;SDS011;14780;48.316;-1.050;2023-03-13T17:26:54;8.32;;;3.38;;
18568;SDS011;14780;48.316;-1.050;2023-03-13T17:29:39;12.18;;;3.80;;
18568;SDS011;14780;48.316;-1.050;2023-03-13T17:32:24;8.35;;;3.15;;
18568;SDS011;14780;48.316;-1.050;2023-03-13T17:35:09;7.55;;;2.95;;
18568;SDS011;14780;48.316;-1.050;2023-03-13T17:37:54;8.88;;;3.70;;
18568;SDS011;14780;48.316;-1.050;2023-03-13T17:40:38;7.70;;;3.67;;
18568;SDS011;14780;48.316;-1.050;2023-03-13T17:43:24;7.78;;;3.20;;
18568;SDS011;14780;48.316;-1.050;2023-03-13T17:46:19;8.90;;;3.80;;
18568;SDS011;14780;48.316;-1.050;2023-03-13T17:49:04;9.18;;;3.83;;
18568;SDS011;14780;48.316;-1.050;2023-03-13T17:51:50;6.85;;;3.17;;
18568;SDS011;14780;48.316;-1.050;2023-03-13T17:54:35;9.35;;;3.67;;
18568;SDS011;14780;48.316;-1.050;2023-03-13T17:57:19;8.30;;;3.10;;
18568;SDS011;14780;48.316;-1.050;2023-03-13T18:00:38;8.60;;;3.88;;
18568;SDS011;14780;48.316;-1.050;2023-03-13T18:03:16;8.55;;;3.30;;
18568;SDS011;14780;48.316;-1.050;2023-03-13T18:06:01;7.90;;;3.25;;
18568;SDS011;14780;48.316;-1.050;2023-03-13T18:08:47;7.75;;;3.50;;
18568;SDS011;14780;48.316;-1.050;2023-03-13T18:11:36;10.80;;;3.08;;
18568;SDS011;14780;48.316;-1.050;2023-03-13T18:14:21;13.27;;;3.58;;
18568;SDS011;14780;48.316;-1.050;2023-03-13T18:17:13;8.40;;;3.45;;